Pecan, Mississippi
Current Conditions -  °F | °C
As of 11:53 AM on Thursday 29 Jan 2015 (Local Time) from KPQL Reporting Station
Clear Clear  
Wind Chill: 70°   Ceiling: Unl
Heat Index: 70°   Visibility: 10mi
Dew Point: 52°   Wind: 9mph
Humidity: 53%   Direction: 190°S
Pressure: 30.27"   Gusts: 17mph
Location:  30.3649°N, 88.5432°W
Report Text: KPQL 291753Z 19008G15KT 10SM CLR 21/11 A3027 RMK AO2 SLP252 T02110111 10211 20022 58000
Loading
Personal Weather Stations






























Interactive Weather Map New forecast layout! Learn more

10-Day Weather Forecast

Advertisements
Track Severe Weather on mobile